Time;durP1;ratioP1;P1;durP2;ratioP2;P2;SDS_P1;SDS_P2;PMS_P1;PMS_P2;Temp;Humidity;BMP_temperature;BMP_pressure;BME280_temperature;BME280_humidity;BME280_pressure;Samples;Min_cycle;Max_cycle;Signal;HPM_P1;HPM_P2
2022/09/30 00:01:24;;;;;;;9.82;7.15;;;8.30;99.90;;;;;;5013663;28;20302;-45
2022/09/30 00:03:51;;;;;;;11.88;6.65;;;8.30;99.90;;;;;;5014799;28;20112;-44
2022/09/30 00:06:16;;;;;;;9.65;6.40;;;8.30;99.90;;;;;;5014625;28;20034;-44
2022/09/30 00:08:42;;;;;;;11.63;7.65;;;8.20;99.90;;;;;;5014726;28;20026;-47
2022/09/30 00:11:12;;;;;;;9.57;6.15;;;8.20;99.90;;;;;;5014690;28;20367;-40
2022/09/30 00:13:39;;;;;;;10.65;6.47;;;8.20;99.90;;;;;;5014433;28;20018;-43
2022/09/30 00:16:05;;;;;;;8.13;5.82;;;8.20;99.90;;;;;;5014964;28;20018;-44
2022/09/30 00:18:31;;;;;;;15.68;6.20;;;8.20;99.90;;;;;;5015153;28;20026;-43
2022/09/30 00:20:58;;;;;;;10.93;6.85;;;8.20;99.90;;;;;;5014819;28;20540;-43
2022/09/30 00:23:23;;;;;;;8.82;5.93;;;8.20;99.90;;;;;;5014189;28;20030;-46
2022/09/30 00:25:49;;;;;;;17.85;6.60;;;8.10;99.90;;;;;;5014361;28;20075;-43
2022/09/30 00:28:15;;;;;;;13.63;5.70;;;8.00;99.90;;;;;;5013495;28;20034;-44
2022/09/30 00:30:41;;;;;;;10.35;6.53;;;8.00;99.90;;;;;;5014464;28;20490;-42
2022/09/30 00:33:07;;;;;;;9.40;6.45;;;7.90;99.90;;;;;;5014384;28;20018;-44
2022/09/30 00:35:32;;;;;;;7.95;5.78;;;7.80;99.90;;;;;;5014206;28;20030;-42
2022/09/30 00:37:59;;;;;;;12.00;6.18;;;7.70;99.90;;;;;;5013701;28;20022;-42
2022/09/30 00:40:25;;;;;;;9.90;6.40;;;7.70;99.90;;;;;;5014169;28;20022;-43
2022/09/30 00:42:51;;;;;;;9.57;6.53;;;7.60;99.90;;;;;;5013487;28;20485;-43
2022/09/30 00:45:17;;;;;;;16.58;7.60;;;7.60;99.90;;;;;;5014016;28;20048;-42
2022/09/30 00:47:56;;;;;;;8.30;5.95;;;7.60;99.90;;;;;;5013678;28;20498;-48
2022/09/30 00:50:37;;;;;;;11.93;6.47;;;7.60;99.90;;;;;;5013909;28;20026;-42
2022/09/30 00:53:05;;;;;;;14.27;6.95;;;7.60;99.90;;;;;;5013584;28;20066;-46
2022/09/30 00:55:40;;;;;;;12.52;7.25;;;7.70;99.90;;;;;;5013853;28;20371;-43
2022/09/30 00:58:08;;;;;;;9.20;6.45;;;7.70;99.90;;;;;;5011983;28;20104;-39
2022/09/30 01:03:06;;;;;;;11.65;5.65;;;7.80;99.90;;;;;;5034079;23;20053;-47
2022/09/30 01:05:33;;;;;;;11.02;6.22;;;7.80;99.90;;;;;;5013787;28;20474;-48
2022/09/30 01:08:02;;;;;;;8.23;6.95;;;7.80;99.90;;;;;;5012233;28;20498;-49
2022/09/30 01:10:27;;;;;;;10.38;7.10;;;7.80;99.90;;;;;;5013548;28;20018;-46
2022/09/30 01:12:53;;;;;;;44.83;24.98;;;7.80;99.90;;;;;;5013272;28;20113;-45
2022/09/30 01:15:24;;;;;;;10.40;7.68;;;7.90;99.90;;;;;;5013639;28;20213;-48
2022/09/30 01:18:07;;;;;;;10.65;6.57;;;7.90;99.90;;;;;;5013297;28;20014;-47
2022/09/30 01:21:01;;;;;;;8.88;6.30;;;7.80;99.90;;;;;;5013478;28;20026;-48
2022/09/30 01:24:28;;;;;;;9.20;5.95;;;7.80;99.90;;;;;;4992087;28;20541;-45
2022/09/30 01:27:19;;;;;;;9.68;6.07;;;7.80;99.90;;;;;;4955867;28;20213;-45
2022/09/30 01:30:03;;;;;;;8.05;5.95;;;7.90;99.90;;;;;;5013178;28;20072;-47
2022/09/30 01:32:33;;;;;;;11.15;6.38;;;7.80;99.90;;;;;;5012694;28;20022;-46
2022/09/30 01:35:24;;;;;;;8.35;6.38;;;7.80;99.90;;;;;;5013179;28;20030;-45
2022/09/30 01:38:28;;;;;;;9.90;6.43;;;7.90;99.90;;;;;;5013142;28;20084;-46
2022/09/30 01:41:08;;;;;;;10.77;6.05;;;7.90;99.90;;;;;;5012995;28;20502;-42
2022/09/30 01:43:40;;;;;;;11.30;6.50;;;7.80;99.90;;;;;;5012699;28;20417;-45
2022/09/30 01:46:22;;;;;;;12.07;6.22;;;7.80;99.90;;;;;;5012902;28;20106;-45
2022/09/30 01:49:30;;;;;;;9.93;6.43;;;7.70;99.90;;;;;;5011899;28;20034;-43
2022/09/30 01:52:24;;;;;;;8.65;6.13;;;7.60;99.90;;;;;;5010532;28;20037;-47
2022/09/30 01:55:10;;;;;;;10.30;6.65;;;7.50;99.90;;;;;;5012788;28;20022;-47
2022/09/30 01:57:36;;;;;;;;;;;7.40;99.90;;;;;;5013208;28;20072;-46
2022/09/30 02:00:08;;;;;;;12.82;6.63;;;7.40;99.90;;;;;;5012491;28;19996;-44
2022/09/30 02:03:16;;;;;;;12.55;6.78;;;7.40;99.90;;;;;;5012108;28;20414;-49
2022/09/30 02:05:52;;;;;;;12.85;6.13;;;7.50;99.90;;;;;;5003915;28;20039;-49
2022/09/30 02:08:20;;;;;;;;;;;7.50;99.90;;;;;;5012790;28;20030;-46
2022/09/30 02:10:55;;;;;;;10.50;7.13;;;7.50;99.90;;;;;;5012466;28;20320;-47
2022/09/30 02:13:29;;;;;;;11.95;7.10;;;7.40;99.90;;;;;;5012168;28;20026;-46
2022/09/30 02:16:00;;;;;;;12.88;7.35;;;7.30;99.90;;;;;;5012465;28;20033;-45
2022/09/30 02:18:28;;;;;;;8.15;6.30;;;7.20;99.90;;;;;;5012534;28;20521;-44
2022/09/30 02:21:03;;;;;;;11.93;7.60;;;7.10;99.90;;;;;;5012172;28;20034;-46
2022/09/30 02:23:39;;;;;;;10.65;8.40;;;7.00;99.90;;;;;;5011922;28;20021;-47
2022/09/30 02:26:18;;;;;;;16.63;8.68;;;7.00;99.90;;;;;;5012217;28;20046;-45
2022/09/30 02:28:50;;;;;;;14.30;9.10;;;7.00;99.90;;;;;;5012032;28;20037;-46
2022/09/30 02:31:20;;;;;;;13.32;9.35;;;7.00;99.90;;;;;;5010922;28;20018;-44
2022/09/30 02:33:48;;;;;;;11.05;8.40;;;7.00;99.90;;;;;;5011942;28;20509;-46
2022/09/30 02:36:23;;;;;;;10.77;7.22;;;7.00;99.90;;;;;;5012091;28;20050;-47
2022/09/30 02:39:05;;;;;;;13.77;8.68;;;7.00;99.90;;;;;;5010650;28;20022;-48
2022/09/30 02:41:37;;;;;;;17.40;9.68;;;7.00;99.90;;;;;;5012000;28;20541;-50
2022/09/30 02:44:03;;;;;;;12.27;8.30;;;7.00;99.90;;;;;;5011755;28;20030;-44
2022/09/30 02:46:56;;;;;;;11.65;8.45;;;7.00;99.90;;;;;;5011960;28;20021;-46
2022/09/30 02:49:30;;;;;;;12.15;8.15;;;6.90;99.90;;;;;;5011816;28;20470;-48
2022/09/30 02:52:23;;;;;;;10.93;7.80;;;6.90;99.90;;;;;;5011582;28;20021;-46
2022/09/30 02:55:08;;;;;;;13.95;8.75;;;6.80;99.90;;;;;;5011869;28;20075;-46
2022/09/30 02:58:10;;;;;;;13.98;8.63;;;6.70;99.90;;;;;;5011901;28;20022;-48
2022/09/30 03:00:36;;;;;;;11.77;7.72;;;6.80;99.90;;;;;;5011784;28;20025;-46
2022/09/30 03:03:06;;;;;;;11.50;8.55;;;6.80;99.90;;;;;;5011293;28;20041;-44
2022/09/30 03:05:32;;;;;;;12.25;7.85;;;6.80;99.90;;;;;;5011663;28;20605;-48
2022/09/30 03:07:57;;;;;;;10.15;6.63;;;6.80;99.90;;;;;;5011615;28;20105;-47
2022/09/30 03:10:23;;;;;;;9.13;7.40;;;6.80;99.90;;;;;;5011554;28;20028;-46
2022/09/30 03:13:15;;;;;;;9.30;7.78;;;6.80;99.90;;;;;;5011353;28;20029;-48
2022/09/30 03:16:08;;;;;;;11.02;7.72;;;6.80;99.90;;;;;;5011197;28;20045;-47
2022/09/30 03:18:52;;;;;;;13.55;7.18;;;6.90;99.90;;;;;;5011389;28;20493;-43
2022/09/30 03:21:56;;;;;;;9.05;6.95;;;6.90;99.90;;;;;;5011391;28;20053;-44
2022/09/30 03:24:50;;;;;;;15.52;7.50;;;6.80;99.90;;;;;;5011538;28;20445;-48
2022/09/30 03:27:29;;;;;;;13.48;7.63;;;6.90;99.90;;;;;;5011208;28;20057;-46
2022/09/30 03:30:05;;;;;;;16.45;6.97;;;6.70;99.90;;;;;;5011340;28;20508;-45
2022/09/30 03:32:48;;;;;;;9.65;6.70;;;6.70;99.90;;;;;;5011151;28;20037;-44
2022/09/30 03:35:20;;;;;;;12.40;7.13;;;6.60;99.90;;;;;;5011349;28;20029;-45
2022/09/30 03:37:59;;;;;;;10.23;6.97;;;6.70;99.90;;;;;;5011477;28;20050;-45
2022/09/30 03:40:45;;;;;;;12.95;7.97;;;6.60;99.90;;;;;;5011284;28;20030;-46
2022/09/30 03:43:15;;;;;;;;;;;6.60;99.90;;;;;;5011307;28;20054;-44
2022/09/30 03:45:56;;;;;;;7.95;7.00;;;6.60;99.90;;;;;;5011188;28;19905;-47
2022/09/30 03:48:23;;;;;;;8.45;6.75;;;6.50;99.90;;;;;;5011225;28;20022;-45
2022/09/30 03:50:49;;;;;;;10.48;7.25;;;6.40;99.90;;;;;;5011099;28;20092;-44
2022/09/30 03:53:15;;;;;;;9.32;6.35;;;6.40;99.90;;;;;;5010935;28;20022;-45
2022/09/30 03:55:49;;;;;;;8.10;6.55;;;6.40;99.90;;;;;;5011125;28;20014;-45
2022/09/30 03:58:16;;;;;;;13.52;6.93;;;6.40;99.90;;;;;;5011098;28;20034;-43
2022/09/30 04:00:47;;;;;;;13.15;7.25;;;6.40;99.90;;;;;;5011014;28;20454;-45
2022/09/30 04:03:13;;;;;;;9.82;8.05;;;6.40;99.90;;;;;;5010795;28;20025;-45
2022/09/30 04:05:38;;;;;;;9.23;7.00;;;6.40;99.90;;;;;;5009911;28;20504;-44
2022/09/30 04:08:04;;;;;;;8.65;7.03;;;6.40;99.90;;;;;;5011193;28;20529;-49
2022/09/30 04:10:29;;;;;;;14.23;8.05;;;6.40;99.90;;;;;;5011506;28;20022;-44
2022/09/30 04:12:56;;;;;;;10.65;7.38;;;6.50;99.90;;;;;;5013309;28;20091;-46
2022/09/30 04:15:22;;;;;;;13.38;7.88;;;6.50;99.90;;;;;;5014493;28;20104;-45
2022/09/30 04:17:47;;;;;;;10.27;7.47;;;6.50;99.90;;;;;;5014563;28;20450;-45
2022/09/30 04:20:13;;;;;;;8.25;6.20;;;6.50;99.90;;;;;;5014354;28;20058;-45
2022/09/30 04:22:38;;;;;;;11.30;6.65;;;6.40;99.90;;;;;;5014131;28;20033;-42
2022/09/30 04:25:04;;;;;;;7.95;6.82;;;6.40;99.90;;;;;;5014512;28;20548;-45
2022/09/30 04:27:30;;;;;;;12.13;7.18;;;6.30;99.90;;;;;;5013905;28;20457;-45
2022/09/30 04:29:55;;;;;;;7.63;6.57;;;6.30;99.90;;;;;;5014348;28;20037;-47
2022/09/30 04:32:21;;;;;;;10.48;6.97;;;6.30;99.90;;;;;;5013964;28;20470;-45
2022/09/30 04:34:47;;;;;;;6.88;6.15;;;6.30;99.90;;;;;;5014215;28;20054;-50
2022/09/30 04:37:12;;;;;;;12.50;7.50;;;6.30;99.90;;;;;;5014294;28;20045;-49
2022/09/30 04:39:39;;;;;;;13.88;6.82;;;6.30;99.90;;;;;;5014077;28;20091;-46
2022/09/30 04:42:05;;;;;;;13.13;6.82;;;6.30;99.90;;;;;;5013738;28;20100;-46
2022/09/30 04:44:31;;;;;;;8.93;5.70;;;6.30;99.90;;;;;;5014209;28;20021;-47
2022/09/30 04:46:57;;;;;;;12.43;6.57;;;6.30;99.90;;;;;;5014125;28;20393;-49
2022/09/30 04:49:23;;;;;;;9.68;6.40;;;6.30;99.90;;;;;;5013972;28;20477;-48
2022/09/30 04:51:48;;;;;;;8.13;7.20;;;6.30;99.90;;;;;;5013696;28;20045;-42
2022/09/30 04:54:15;;;;;;;10.25;6.93;;;6.20;99.90;;;;;;5013830;28;20498;-45
2022/09/30 04:56:41;;;;;;;9.68;6.43;;;6.20;99.90;;;;;;5013752;28;20018;-44
2022/09/30 04:59:07;;;;;;;13.25;7.13;;;6.20;99.90;;;;;;5013726;28;20076;-47
2022/09/30 05:01:33;;;;;;;8.55;6.50;;;6.20;99.90;;;;;;5013421;28;20107;-44
2022/09/30 05:03:58;;;;;;;13.00;6.75;;;6.20;99.90;;;;;;5013456;28;20026;-47
2022/09/30 05:06:24;;;;;;;8.68;6.75;;;6.20;99.90;;;;;;5013596;28;20034;-45
2022/09/30 05:08:49;;;;;;;7.57;6.47;;;6.20;99.90;;;;;;5013345;28;20041;-45
2022/09/30 05:11:19;;;;;;;9.45;6.82;;;6.20;99.90;;;;;;5013448;28;20022;-47
2022/09/30 05:13:45;;;;;;;10.00;6.05;;;6.20;99.90;;;;;;5013445;28;20028;-47
2022/09/30 05:16:12;;;;;;;8.18;6.78;;;6.10;99.90;;;;;;5013426;28;20026;-47
2022/09/30 05:18:39;;;;;;;9.32;7.15;;;6.10;99.90;;;;;;5013416;28;20109;-48
2022/09/30 05:21:05;;;;;;;9.73;6.90;;;6.20;99.90;;;;;;5013146;28;20026;-46
2022/09/30 05:23:32;;;;;;;10.25;6.75;;;6.10;99.90;;;;;;5011780;28;20026;-45
2022/09/30 05:25:58;;;;;;;9.50;7.93;;;6.10;99.90;;;;;;5013154;28;20033;-45
2022/09/30 05:28:24;;;;;;;12.88;8.07;;;6.10;99.90;;;;;;5012648;28;20030;-47
2022/09/30 05:30:57;;;;;;;10.50;7.95;;;6.10;99.90;;;;;;5013037;28;20089;-46
2022/09/30 05:33:22;;;;;;;24.88;8.15;;;6.10;99.90;;;;;;5012709;28;20413;-52
2022/09/30 05:35:48;;;;;;;13.07;8.38;;;6.10;99.90;;;;;;5011784;28;20029;-47
2022/09/30 05:38:13;;;;;;;10.55;8.50;;;6.10;99.90;;;;;;5013127;28;20049;-45
2022/09/30 05:40:39;;;;;;;16.10;9.45;;;6.10;99.90;;;;;;5012859;28;20064;-46
2022/09/30 05:43:06;;;;;;;11.80;8.40;;;6.00;99.90;;;;;;5011273;28;20404;-46
2022/09/30 05:45:32;;;;;;;9.02;7.47;;;6.00;99.90;;;;;;5013444;28;20061;-46
2022/09/30 05:47:58;;;;;;;9.82;7.70;;;6.00;99.90;;;;;;5013017;28;20496;-47
2022/09/30 05:50:24;;;;;;;11.55;7.80;;;6.00;99.90;;;;;;5011487;28;20065;-45
2022/09/30 05:52:50;;;;;;;13.95;8.98;;;6.10;99.90;;;;;;5012531;28;20394;-48
2022/09/30 05:55:17;;;;;;;10.70;8.02;;;6.10;99.90;;;;;;5014174;28;20032;-45
2022/09/30 05:57:45;;;;;;;9.95;8.35;;;6.10;99.90;;;;;;5014312;28;20397;-44
2022/09/30 06:00:11;;;;;;;13.85;9.52;;;6.20;99.90;;;;;;5012653;28;20052;-48
2022/09/30 06:02:37;;;;;;;12.48;8.77;;;6.30;99.90;;;;;;5012256;28;20113;-47
2022/09/30 06:05:06;;;;;;;13.27;10.27;;;6.30;99.90;;;;;;5011404;28;20457;-46
2022/09/30 06:07:33;;;;;;;13.73;8.95;;;6.30;99.90;;;;;;5012586;28;20030;-46
2022/09/30 06:09:59;;;;;;;14.45;9.85;;;6.40;99.90;;;;;;5012298;28;20185;-43
2022/09/30 06:12:27;;;;;;;13.48;10.23;;;6.40;99.90;;;;;;5012114;28;20105;-50
2022/09/30 06:14:53;;;;;;;13.40;9.15;;;6.40;99.90;;;;;;5012531;28;20429;-46
2022/09/30 06:17:19;;;;;;;15.68;9.30;;;6.50;99.90;;;;;;5012250;28;20657;-46
2022/09/30 06:19:45;;;;;;;16.73;9.70;;;6.50;99.90;;;;;;5012291;28;20030;-45
2022/09/30 06:22:10;;;;;;;21.35;9.98;;;6.50;99.90;;;;;;5011904;28;20022;-48
2022/09/30 06:24:36;;;;;;;20.10;10.52;;;6.60;99.90;;;;;;5012703;28;20026;-45
2022/09/30 06:27:02;;;;;;;17.30;9.38;;;6.70;99.90;;;;;;5011689;28;20052;-44
2022/09/30 06:29:27;;;;;;;11.93;8.93;;;6.80;99.90;;;;;;5012190;28;20120;-48
2022/09/30 06:31:53;;;;;;;13.15;8.85;;;6.90;99.90;;;;;;5011774;28;20397;-46
2022/09/30 06:34:19;;;;;;;13.50;10.43;;;7.00;99.90;;;;;;5011868;28;20032;-45
2022/09/30 06:36:44;;;;;;;15.68;10.07;;;7.00;99.90;;;;;;5011945;28;20026;-47
2022/09/30 06:39:10;;;;;;;13.60;9.48;;;7.10;99.90;;;;;;5011948;28;20032;-44
2022/09/30 06:41:38;;;;;;;22.67;10.05;;;7.20;99.90;;;;;;5011852;28;20391;-46
2022/09/30 06:44:04;;;;;;;16.10;9.80;;;7.50;99.90;;;;;;5011891;28;20115;-47
2022/09/30 06:46:29;;;;;;;17.95;9.80;;;7.80;99.90;;;;;;5011858;28;20053;-48
2022/09/30 06:48:56;;;;;;;15.80;8.88;;;8.20;99.90;;;;;;5011802;28;20111;-48
2022/09/30 06:51:22;;;;;;;14.35;9.38;;;8.60;99.90;;;;;;5011697;28;20018;-46
2022/09/30 06:53:52;;;;;;;12.00;8.20;;;9.30;99.90;;;;;;5011554;28;20025;-46
2022/09/30 06:56:18;;;;;;;17.50;7.70;;;10.10;99.90;;;;;;5011672;28;20031;-46
2022/09/30 06:58:44;;;;;;;8.60;7.22;;;10.70;99.90;;;;;;5011919;28;20038;-45
2022/09/30 07:01:14;;;;;;;9.05;6.45;;;11.10;99.90;;;;;;5012628;28;20038;-46
2022/09/30 07:03:43;;;;;;;14.45;6.70;;;11.40;99.90;;;;;;5011446;28;20072;-46
2022/09/30 07:06:11;;;;;;;7.80;6.70;;;12.10;99.90;;;;;;5011604;28;20022;-44
2022/09/30 07:08:37;;;;;;;8.52;6.50;;;12.60;99.90;;;;;;5011366;28;20377;-45
2022/09/30 07:11:13;;;;;;;9.77;6.65;;;13.30;99.90;;;;;;5011260;28;20022;-45
2022/09/30 07:13:44;;;;;;;11.98;6.38;;;13.70;99.90;;;;;;5011320;28;20022;-45
2022/09/30 07:16:11;;;;;;;9.13;6.22;;;14.00;99.90;;;;;;5011572;28;20021;-45
2022/09/30 07:18:37;;;;;;;14.30;6.75;;;14.40;99.90;;;;;;5011439;28;20022;-45
2022/09/30 07:21:02;;;;;;;9.68;5.28;;;15.00;99.90;;;;;;5011437;28;20686;-45
2022/09/30 07:23:28;;;;;;;10.50;5.30;;;15.10;99.90;;;;;;5010939;28;20054;-46
2022/09/30 07:26:03;;;;;;;10.27;4.65;;;15.20;99.90;;;;;;5011425;28;20040;-44
2022/09/30 07:28:31;;;;;;;6.68;4.97;;;15.50;99.90;;;;;;5011392;28;20485;-45
2022/09/30 07:30:59;;;;;;;6.75;3.95;;;15.60;99.90;;;;;;5011660;28;20041;-45
2022/09/30 07:33:30;;;;;;;5.93;4.32;;;15.70;99.90;;;;;;5011468;28;20077;-45
2022/09/30 07:35:57;;;;;;;6.25;4.35;;;15.10;99.90;;;;;;5011758;28;20428;-45
2022/09/30 07:38:25;;;;;;;7.10;4.60;;;14.10;99.90;;;;;;5011489;28;20030;-45
2022/09/30 07:41:01;;;;;;;9.18;5.13;;;13.20;99.90;;;;;;5011694;28;20105;-46
2022/09/30 07:43:33;;;;;;;5.18;4.68;;;12.70;99.90;;;;;;5011294;28;20026;-47
2022/09/30 07:46:22;;;;;;;6.90;5.45;;;12.10;99.90;;;;;;5011295;28;20026;-48
2022/09/30 07:48:51;;;;;;;7.35;5.32;;;11.60;99.90;;;;;;5014833;28;20108;-45
2022/09/30 07:51:22;;;;;;;6.25;5.15;;;11.10;99.90;;;;;;5015104;28;20046;-48
2022/09/30 07:53:54;;;;;;;10.25;6.18;;;10.80;99.90;;;;;;5014725;28;20448;-44
2022/09/30 07:56:21;;;;;;;7.22;6.18;;;10.50;99.90;;;;;;5014965;28;20144;-47
2022/09/30 07:58:47;;;;;;;5.47;4.97;;;10.50;99.90;;;;;;5014797;28;20032;-45
2022/09/30 08:01:14;;;;;;;6.63;5.25;;;10.30;99.90;;;;;;5014753;28;20030;-46
2022/09/30 08:03:43;;;;;;;10.68;5.95;;;10.10;99.90;;;;;;5013345;28;20034;-50
2022/09/30 08:06:12;;;;;;;6.55;5.95;;;10.00;99.90;;;;;;5014841;28;20029;-46
2022/09/30 08:08:38;;;;;;;7.57;5.53;;;10.00;99.90;;;;;;5014549;28;20030;-47
2022/09/30 08:11:05;;;;;;;7.82;5.40;;;9.90;99.90;;;;;;5014482;28;20117;-47
2022/09/30 08:13:31;;;;;;;6.90;6.20;;;9.90;99.90;;;;;;5014361;28;20025;-46
2022/09/30 08:15:56;;;;;;;6.03;5.43;;;9.80;99.90;;;;;;5014594;28;20030;-45
2022/09/30 08:18:22;;;;;;;9.50;5.50;;;9.80;99.90;;;;;;5014679;28;20048;-46
2022/09/30 08:20:49;;;;;;;6.57;5.93;;;9.80;99.90;;;;;;5014134;28;20028;-46
2022/09/30 08:23:15;;;;;;;7.68;6.05;;;9.90;99.90;;;;;;5013681;28;20079;-45
2022/09/30 08:25:40;;;;;;;7.13;5.65;;;9.90;99.90;;;;;;5014172;28;20478;-45
2022/09/30 08:28:06;;;;;;;8.02;5.85;;;10.00;99.90;;;;;;5014082;28;20034;-42
2022/09/30 08:30:34;;;;;;;7.88;6.30;;;10.10;99.90;;;;;;5014452;28;20049;-45
2022/09/30 08:33:00;;;;;;;6.88;5.78;;;10.10;99.90;;;;;;5013872;28;20116;-47
2022/09/30 08:35:25;;;;;;;10.95;6.65;;;10.10;99.90;;;;;;5014231;28;20062;-45
2022/09/30 08:37:51;;;;;;;6.22;5.63;;;10.20;99.90;;;;;;5014115;28;20037;-49
2022/09/30 08:40:26;;;;;;;7.47;6.03;;;10.20;99.90;;;;;;5014203;28;20029;-44
2022/09/30 08:43:15;;;;;;;8.32;5.40;;;10.20;99.90;;;;;;5013773;28;20029;-46
2022/09/30 08:46:00;;;;;;;6.82;5.32;;;10.30;99.90;;;;;;5014190;28;20026;-44
2022/09/30 08:48:38;;;;;;;6.05;5.45;;;10.40;99.90;;;;;;5014267;28;20042;-49
2022/09/30 08:51:16;;;;;;;10.15;6.13;;;10.50;99.90;;;;;;5014146;28;20067;-47
2022/09/30 08:53:44;;;;;;;7.75;6.30;;;10.60;99.90;;;;;;5013774;28;20095;-49
2022/09/30 08:56:20;;;;;;;7.95;5.10;;;10.70;99.90;;;;;;5013807;28;20026;-46
2022/09/30 08:58:50;;;;;;;7.15;5.47;;;10.80;99.90;;;;;;5013479;28;20029;-43
2022/09/30 09:01:25;;;;;;;8.30;5.32;;;11.70;99.90;;;;;;5013643;28;20026;-46
2022/09/30 09:03:50;;;;;;;8.93;5.07;;;13.10;99.90;;;;;;5013608;28;20130;-49
2022/09/30 09:06:22;;;;;;;5.45;4.40;;;14.60;99.90;;;;;;5013631;28;20101;-46
2022/09/30 09:09:04;;;;;;;4.10;3.70;;;15.90;99.90;;;;;;5013431;28;20397;-46
2022/09/30 09:11:39;;;;;;;4.45;3.95;;;17.20;99.90;;;;;;5012286;28;20105;-45
2022/09/30 09:14:21;;;;;;;7.40;4.20;;;18.10;99.90;;;;;;5013309;28;20026;-49
2022/09/30 09:17:05;;;;;;;4.70;4.30;;;19.00;98.80;;;;;;5013635;28;20125;-45
2022/09/30 09:19:41;;;;;;;5.45;3.63;;;19.70;98.10;;;;;;5013471;28;20145;-45
2022/09/30 09:22:09;;;;;;;6.97;3.58;;;20.50;96.90;;;;;;5013038;28;20439;-45
2022/09/30 09:24:46;;;;;;;4.22;3.40;;;21.10;94.90;;;;;;5013295;28;20041;-43
2022/09/30 09:27:44;;;;;;;3.85;2.90;;;21.40;94.10;;;;;;5012659;28;20026;-45
2022/09/30 09:30:11;;;;;;;3.97;3.38;;;21.10;93.80;;;;;;5009313;28;20076;-46
2022/09/30 09:32:37;;;;;;;5.45;3.72;;;20.90;94.20;;;;;;5012884;28;20050;-43
2022/09/30 09:35:23;;;;;;;12.27;3.88;;;20.70;94.10;;;;;;5012957;28;20473;-45
2022/09/30 09:40:55;;;;;;;7.50;3.78;;;20.90;94.50;;;;;;5013003;28;19951;-48
2022/09/30 09:43:50;;;;;;;4.07;3.65;;;20.80;94.40;;;;;;5012776;28;20520;-44
2022/09/30 09:46:44;;;;;;;7.10;3.53;;;20.60;94.90;;;;;;4994571;28;20120;-44
2022/09/30 09:49:13;;;;;;;5.75;4.30;;;20.30;94.70;;;;;;5012751;28;20441;-45
2022/09/30 09:51:46;;;;;;;6.55;4.13;;;19.80;95.00;;;;;;5012735;28;20026;-46
2022/09/30 09:54:14;;;;;;;5.45;4.60;;;19.50;95.90;;;;;;5012495;28;20030;-46
2022/09/30 09:56:40;;;;;;;7.25;3.97;;;19.40;96.10;;;;;;5012675;28;20478;-42
2022/09/30 09:59:15;;;;;;;9.70;4.50;;;19.20;96.20;;;;;;5012517;28;20109;-46
2022/09/30 10:01:45;;;;;;;6.80;4.10;;;19.10;96.20;;;;;;5012368;28;20429;-47
2022/09/30 10:04:18;;;;;;;4.63;3.88;;;19.00;97.10;;;;;;5012325;28;20072;-47
2022/09/30 10:06:54;;;;;;;5.13;4.63;;;19.00;96.60;;;;;;5012363;28;20100;-44
2022/09/30 10:09:25;;;;;;;6.50;3.92;;;18.90;96.60;;;;;;5011898;28;20069;-48
2022/09/30 10:12:03;;;;;;;9.00;4.22;;;18.90;97.50;;;;;;5012175;28;20030;-47
2022/09/30 10:14:29;;;;;;;7.13;4.30;;;18.60;97.80;;;;;;5012364;28;20026;-46
2022/09/30 10:17:01;;;;;;;10.73;4.85;;;18.40;98.20;;;;;;5012357;28;20030;-43
2022/09/30 10:19:29;;;;;;;7.47;4.00;;;18.60;98.50;;;;;;5012363;28;20112;-47
2022/09/30 10:22:18;;;;;;;5.78;4.22;;;18.60;97.20;;;;;;5012057;28;20065;-45
2022/09/30 10:24:43;;;;;;;7.43;3.42;;;18.50;97.60;;;;;;5012316;28;20169;-45
2022/09/30 10:27:35;;;;;;;4.82;4.30;;;18.60;97.80;;;;;;5011888;28;20116;-43
2022/09/30 10:30:02;;;;;;;6.13;3.78;;;18.40;98.10;;;;;;5009938;28;20038;-45
2022/09/30 10:32:28;;;;;;;5.13;4.45;;;18.30;98.60;;;;;;5011895;28;20057;-46
2022/09/30 10:35:04;;;;;;;7.78;4.10;;;17.90;99.00;;;;;;5011952;28;20109;-46
2022/09/30 10:37:30;;;;;;;4.28;3.55;;;17.50;99.80;;;;;;5012621;28;20472;-48
2022/09/30 10:40:05;;;;;;;5.35;4.40;;;17.40;99.90;;;;;;5012061;28;20109;-45
2022/09/30 10:42:33;;;;;;;4.20;3.88;;;17.40;99.90;;;;;;5011870;28;20026;-49
2022/09/30 10:45:19;;;;;;;52.28;34.95;;;17.30;99.30;;;;;;5012183;28;20163;-45
2022/09/30 10:47:48;;;;;;;50.13;33.20;;;17.00;99.40;;;;;;5012110;28;20125;-47
2022/09/30 10:50:19;;;;;;;39.42;23.75;;;16.70;99.90;;;;;;5011869;28;20390;-45
2022/09/30 10:52:57;;;;;;;5.43;4.47;;;16.50;99.90;;;;;;5012103;28;20022;-44
2022/09/30 10:55:39;;;;;;;6.40;4.22;;;16.40;99.90;;;;;;5012112;28;20021;-44
2022/09/30 10:58:36;;;;;;;8.45;4.97;;;16.30;99.90;;;;;;5011832;28;20022;-45
2022/09/30 11:01:10;;;;;;;6.55;3.78;;;16.20;99.90;;;;;;5009438;28;20022;-44
2022/09/30 11:04:03;;;;;;;5.40;4.13;;;16.20;99.90;;;;;;5010765;28;20451;-50
2022/09/30 11:06:38;;;;;;;4.07;3.67;;;16.20;99.90;;;;;;5010442;28;20390;-46
2022/09/30 11:09:20;;;;;;;7.10;4.05;;;16.20;99.90;;;;;;5011432;28;20030;-46
2022/09/30 11:12:15;;;;;;;4.70;3.17;;;16.20;99.90;;;;;;5011529;28;20030;-46
2022/09/30 11:15:03;;;;;;;3.47;3.05;;;16.10;99.90;;;;;;4999378;28;20053;-46
2022/09/30 11:17:48;;;;;;;3.60;2.17;;;16.20;99.90;;;;;;5011819;28;20080;-44
2022/09/30 11:20:20;;;;;;;9.68;2.25;;;16.20;99.90;;;;;;5011767;28;20036;-46
2022/09/30 11:22:59;;;;;;;5.13;2.70;;;16.10;99.90;;;;;;5015483;28;20105;-44
2022/09/30 11:25:53;;;;;;;3.75;2.60;;;16.00;99.90;;;;;;5015976;28;20036;-45
2022/09/30 11:28:46;;;;;;;3.22;2.83;;;15.90;99.90;;;;;;5007731;28;20089;-43
2022/09/30 11:31:31;;;;;;;4.80;2.88;;;15.90;99.90;;;;;;5015766;28;20022;-43
2022/09/30 11:34:33;;;;;;;6.28;3.47;;;16.00;99.90;;;;;;5015281;28;20022;-45
2022/09/30 11:37:09;;;;;;;2.55;2.25;;;15.90;99.90;;;;;;5016004;28;20379;-43
2022/09/30 11:39:46;;;;;;;5.47;2.85;;;15.80;99.90;;;;;;5015376;28;20504;-44
2022/09/30 11:42:43;;;;;;;3.90;2.83;;;15.70;99.90;;;;;;5015433;28;20036;-43
2022/09/30 11:45:20;;;;;;;5.75;2.55;;;15.60;99.90;;;;;;5015825;28;20030;-44
2022/09/30 11:48:09;;;;;;;6.03;2.85;;;15.70;99.90;;;;;;5016557;28;20030;-43
2022/09/30 11:51:09;;;;;;;3.30;1.60;;;15.70;99.90;;;;;;5016075;28;20386;-44
2022/09/30 11:54:18;;;;;;;3.00;1.67;;;15.70;99.90;;;;;;5001147;28;20053;-46
2022/09/30 11:56:56;;;;;;;3.17;1.85;;;15.70;99.70;;;;;;5015767;28;20025;-45
2022/09/30 11:59:41;;;;;;;3.45;1.77;;;15.60;99.80;;;;;;5015386;28;20026;-44
2022/09/30 12:02:25;;;;;;;3.10;1.70;;;15.60;99.40;;;;;;5014727;28;20038;-44
2022/09/30 12:04:56;;;;;;;6.70;2.50;;;15.50;99.30;;;;;;5015196;28;20022;-44
2022/09/30 12:07:39;;;;;;;5.78;2.58;;;15.50;99.90;;;;;;5015193;28;20062;-46
2022/09/30 12:10:26;;;;;;;3.95;3.22;;;15.50;99.90;;;;;;5015277;28;20117;-44
2022/09/30 12:13:00;;;;;;;6.32;2.83;;;15.50;99.90;;;;;;5014708;28;20452;-48
2022/09/30 12:15:27;;;;;;;7.53;2.78;;;15.50;99.90;;;;;;5015061;28;20485;-45
2022/09/30 12:18:13;;;;;;;6.95;3.40;;;15.50;99.90;;;;;;5014831;28;20445;-41
2022/09/30 12:20:48;;;;;;;8.90;2.55;;;15.60;99.90;;;;;;5014843;28;20022;-47
2022/09/30 12:23:19;;;;;;;2.30;1.85;;;15.70;99.90;;;;;;5014253;28;20030;-45
2022/09/30 12:25:52;;;;;;;5.30;2.78;;;15.60;99.90;;;;;;5014337;28;20036;-48
2022/09/30 12:32:08;;;;;;;55.63;37.88;;;15.50;99.90;;;;;;5007252;28;20033;-48
2022/09/30 12:35:08;;;;;;;30.30;16.92;;;15.50;99.90;;;;;;5014029;28;20022;-41
2022/09/30 12:37:56;;;;;;;4.78;2.80;;;15.60;99.90;;;;;;4972077;28;20081;-48
2022/09/30 12:40:21;;;;;;;3.42;2.10;;;15.60;99.90;;;;;;5014595;28;20034;-44
2022/09/30 12:43:08;;;;;;;6.07;2.15;;;15.70;99.90;;;;;;5014098;28;20508;-46
2022/09/30 12:45:58;;;;;;;3.17;2.20;;;15.80;99.90;;;;;;5014146;28;20037;-46
2022/09/30 12:48:46;;;;;;;2.65;2.17;;;15.70;99.90;;;;;;5014187;28;20025;-47
2022/09/30 12:51:23;;;;;;;2.67;1.80;;;15.70;99.90;;;;;;5014283;28;20084;-44
2022/09/30 12:53:54;;;;;;;2.92;1.85;;;15.80;99.90;;;;;;5014054;28;20018;-43
2022/09/30 12:56:27;;;;;;;2.08;1.70;;;15.80;99.90;;;;;;5014054;28;20014;-47
2022/09/30 12:58:52;;;;;;;4.45;2.13;;;15.80;99.90;;;;;;5014262;28;20032;-45
2022/09/30 13:01:24;;;;;;;6.32;2.10;;;15.90;99.90;;;;;;5038604;23;20129;-50
2022/09/30 13:04:10;;;;;;;3.50;1.60;;;15.90;99.90;;;;;;5012255;28;20030;-50
2022/09/30 13:06:44;;;;;;;;;;;16.00;99.90;;;;;;4983490;28;20064;-45
2022/09/30 13:09:15;;;;;;;3.13;2.20;;;16.00;99.90;;;;;;5013994;28;19936;-48
2022/09/30 13:11:43;;;;;;;6.15;1.70;;;16.10;99.90;;;;;;5029341;28;20029;-47
2022/09/30 13:14:33;;;;;;;1.58;1.48;;;16.10;99.90;;;;;;5012292;28;20029;-48
2022/09/30 13:17:11;;;;;;;4.22;1.88;;;16.10;99.40;;;;;;5014227;28;20486;-45
2022/09/30 13:19:50;;;;;;;1.80;1.70;;;16.00;99.70;;;;;;5013954;28;20032;-46
2022/09/30 13:22:19;;;;;;;3.25;1.80;;;16.00;99.90;;;;;;5013602;28;20037;-48
2022/09/30 13:24:59;;;;;;;4.22;1.45;;;16.00;99.90;;;;;;5013749;28;20028;-45
2022/09/30 13:27:51;;;;;;;3.70;1.95;;;15.90;99.70;;;;;;5013117;28;20088;-51
2022/09/30 13:30:16;;;;;;;5.50;1.73;;;15.90;99.90;;;;;;5013748;28;20545;-46